Time;durP1;ratioP1;P1;durP2;ratioP2;P2;SDS_P1;SDS_P2;PMS_P1;PMS_P2;Temp;Humidity;BMP_temperature;BMP_pressure;BME280_temperature;BME280_humidity;BME280_pressure;Samples;Min_cycle;Max_cycle;Signal;HPM_P1;HPM_P2
2022/09/27 00:01:20;;;;;;;1.00;1.00;;;9.30;99.90;;;;;;485503;245;28090;-69
2022/09/27 00:03:22;;;;;;;1.20;1.20;;;9.30;99.90;;;;;;485636;244;27948;-68
2022/09/27 00:05:23;;;;;;;1.10;1.10;;;9.20;99.90;;;;;;485641;244;27735;-71
2022/09/27 00:07:24;;;;;;;1.40;1.40;;;9.20;99.90;;;;;;485623;243;28320;-69
2022/09/27 00:09:26;;;;;;;1.37;1.30;;;9.20;99.90;;;;;;485673;244;27819;-69
2022/09/27 00:11:27;;;;;;;1.07;1.07;;;9.20;99.90;;;;;;485666;244;27844;-72
2022/09/27 00:13:28;;;;;;;1.40;1.30;;;9.20;99.90;;;;;;485655;244;27960;-69
2022/09/27 00:15:29;;;;;;;1.00;1.00;;;9.20;99.90;;;;;;485336;244;27996;-70
2022/09/27 00:17:30;;;;;;;1.13;1.13;;;9.20;99.90;;;;;;485177;244;27871;-69
2022/09/27 00:19:32;;;;;;;1.10;1.10;;;9.20;99.90;;;;;;483817;244;28360;-68
2022/09/27 00:21:33;;;;;;;1.30;1.30;;;9.20;99.90;;;;;;483815;245;29018;-69
2022/09/27 00:23:34;;;;;;;1.20;1.20;;;9.20;99.90;;;;;;483791;245;28801;-68
2022/09/27 00:25:35;;;;;;;4.00;1.17;;;9.20;99.90;;;;;;483807;245;28307;-71
2022/09/27 00:27:37;;;;;;;1.27;1.27;;;9.10;99.90;;;;;;483757;245;28436;-69
2022/09/27 00:29:38;;;;;;;1.40;1.30;;;9.20;99.90;;;;;;483817;245;27886;-68
2022/09/27 00:31:39;;;;;;;1.47;1.37;;;9.10;99.90;;;;;;483808;245;27937;-69
2022/09/27 00:33:40;;;;;;;1.50;1.40;;;9.10;99.90;;;;;;483822;245;27833;-69
2022/09/27 00:35:42;;;;;;;3.23;1.50;;;9.10;99.90;;;;;;483830;245;27911;-70
2022/09/27 00:37:43;;;;;;;1.60;1.50;;;9.10;99.90;;;;;;483648;245;27378;-68
2022/09/27 00:39:44;;;;;;;2.37;1.23;;;9.10;99.90;;;;;;483673;245;27757;-69
2022/09/27 00:41:45;;;;;;;3.03;1.60;;;9.10;99.90;;;;;;483780;245;27956;-68
2022/09/27 00:43:47;;;;;;;2.20;1.40;;;9.10;99.90;;;;;;483803;245;27959;-68
2022/09/27 00:45:48;;;;;;;2.53;1.60;;;9.10;99.90;;;;;;483810;245;27989;-71
2022/09/27 00:47:49;;;;;;;1.80;1.70;;;9.10;99.90;;;;;;483772;245;27842;-69
2022/09/27 00:49:50;;;;;;;1.63;1.53;;;9.10;99.90;;;;;;483804;245;28009;-69
2022/09/27 00:51:52;;;;;;;1.83;1.70;;;9.10;99.90;;;;;;483807;245;27601;-68
2022/09/27 00:53:53;;;;;;;4.70;1.80;;;9.10;99.90;;;;;;483821;245;28069;-69
2022/09/27 00:55:54;;;;;;;2.30;2.10;;;9.10;99.90;;;;;;483829;245;27864;-71
2022/09/27 00:57:56;;;;;;;2.50;1.80;;;9.10;99.90;;;;;;483772;245;28086;-69
2022/09/27 00:59:57;;;;;;;2.33;2.07;;;9.10;99.90;;;;;;483818;245;27828;-69
2022/09/27 01:01:58;;;;;;;2.20;1.80;;;9.10;99.90;;;;;;483817;245;27926;-69
2022/09/27 01:03:59;;;;;;;2.00;1.80;;;9.10;99.90;;;;;;483816;244;27846;-69
2022/09/27 01:06:01;;;;;;;4.33;2.10;;;9.10;99.90;;;;;;483787;245;27853;-71
2022/09/27 01:08:02;;;;;;;3.43;2.10;;;9.10;99.90;;;;;;483806;245;27942;-68
2022/09/27 01:10:03;;;;;;;3.47;2.10;;;9.10;99.90;;;;;;483821;245;28327;-70
2022/09/27 01:12:04;;;;;;;2.27;2.03;;;9.00;99.90;;;;;;483821;245;28452;-68
2022/09/27 01:14:06;;;;;;;2.10;1.90;;;9.10;99.90;;;;;;483842;245;28373;-69
2022/09/27 01:16:07;;;;;;;3.30;2.10;;;9.10;99.90;;;;;;485355;244;28678;-73
2022/09/27 01:18:08;;;;;;;2.47;2.27;;;9.10;99.90;;;;;;486600;244;28581;-68
2022/09/27 01:20:09;;;;;;;2.23;2.03;;;9.10;99.90;;;;;;486663;244;27510;-69
2022/09/27 01:22:12;;;;;;;3.00;2.10;;;9.10;99.90;;;;;;486246;244;27993;-69
2022/09/27 01:24:12;;;;;;;2.20;2.00;;;9.10;99.90;;;;;;486546;244;28063;-68
2022/09/27 01:26:13;;;;;;;1.87;1.77;;;9.10;99.90;;;;;;486562;244;27405;-70
2022/09/27 01:28:14;;;;;;;3.17;2.43;;;9.10;99.90;;;;;;486616;244;27859;-68
2022/09/27 01:30:15;;;;;;;2.47;2.00;;;9.10;99.90;;;;;;486545;244;27977;-69
2022/09/27 01:32:17;;;;;;;2.80;2.00;;;9.10;99.90;;;;;;486563;244;27903;-69
2022/09/27 01:34:18;;;;;;;4.23;2.07;;;9.10;99.90;;;;;;486501;244;28003;-69
2022/09/27 01:36:20;;;;;;;2.60;2.40;;;9.10;99.90;;;;;;486544;244;27788;-70
2022/09/27 01:38:21;;;;;;;2.40;2.20;;;9.20;99.90;;;;;;486584;244;27840;-68
2022/09/27 01:40:23;;;;;;;3.77;2.47;;;9.10;99.90;;;;;;486617;244;27638;-68
2022/09/27 01:42:23;;;;;;;3.27;2.50;;;9.10;99.90;;;;;;486549;244;27992;-72
2022/09/27 01:44:24;;;;;;;4.07;2.30;;;9.20;99.90;;;;;;486597;244;28041;-69
2022/09/27 01:46:26;;;;;;;2.73;2.53;;;9.20;99.90;;;;;;486548;244;28551;-69
2022/09/27 01:48:27;;;;;;;2.50;2.20;;;9.20;99.90;;;;;;486556;244;28008;-68
2022/09/27 01:50:28;;;;;;;4.90;2.80;;;9.20;99.90;;;;;;486430;244;27910;-69
2022/09/27 01:52:30;;;;;;;4.10;2.43;;;9.10;99.90;;;;;;486430;243;27977;-72
2022/09/27 01:54:31;;;;;;;4.00;2.63;;;9.10;99.90;;;;;;479561;236;27974;-69
2022/09/27 01:56:32;;;;;;;4.30;2.80;;;9.10;99.90;;;;;;475211;250;27918;-69
2022/09/27 01:58:33;;;;;;;3.07;2.60;;;9.10;99.90;;;;;;475284;250;27648;-69
2022/09/27 02:00:34;;;;;;;6.43;3.20;;;9.10;99.90;;;;;;475265;250;27689;-69
2022/09/27 02:02:36;;;;;;;3.17;2.50;;;9.10;99.90;;;;;;475274;250;27902;-74
2022/09/27 02:04:37;;;;;;;3.80;2.97;;;9.10;99.90;;;;;;475258;250;28032;-68
2022/09/27 02:06:38;;;;;;;7.00;3.20;;;9.10;99.90;;;;;;475022;250;28585;-70
2022/09/27 02:08:40;;;;;;;2.77;2.57;;;9.10;99.90;;;;;;475237;250;28478;-69
2022/09/27 02:10:41;;;;;;;3.00;2.80;;;9.10;99.90;;;;;;475252;250;28505;-68
2022/09/27 02:12:42;;;;;;;3.00;2.67;;;9.00;99.90;;;;;;475287;250;28455;-71
2022/09/27 02:14:43;;;;;;;2.63;2.50;;;9.10;99.90;;;;;;479884;241;28195;-68
2022/09/27 02:16:44;;;;;;;5.63;3.00;;;9.10;99.90;;;;;;478618;248;27633;-71
2022/09/27 02:18:46;;;;;;;4.40;3.13;;;9.10;99.90;;;;;;478716;248;27506;-69
2022/09/27 02:20:47;;;;;;;4.13;2.90;;;9.10;99.90;;;;;;478698;248;27881;-69
2022/09/27 02:22:49;;;;;;;3.27;2.80;;;9.00;99.90;;;;;;478718;248;27783;-71
2022/09/27 02:24:50;;;;;;;3.80;3.17;;;9.00;99.90;;;;;;478686;248;27529;-68
2022/09/27 02:26:51;;;;;;;5.90;2.93;;;9.00;99.90;;;;;;478578;248;27580;-70
2022/09/27 02:28:52;;;;;;;5.40;3.23;;;9.00;99.90;;;;;;478608;248;27535;-68
2022/09/27 02:30:53;;;;;;;3.60;3.00;;;9.00;99.90;;;;;;478601;248;28021;-69
2022/09/27 02:32:54;;;;;;;3.67;2.80;;;9.00;99.90;;;;;;478672;248;27730;-69
2022/09/27 02:34:56;;;;;;;6.33;3.10;;;9.00;99.90;;;;;;478669;248;27483;-69
2022/09/27 02:36:57;;;;;;;3.10;2.90;;;9.00;99.90;;;;;;478596;248;27779;-69
2022/09/27 02:38:59;;;;;;;3.33;2.77;;;9.00;99.90;;;;;;478666;248;27913;-69
2022/09/27 02:40:59;;;;;;;3.70;2.50;;;9.00;99.90;;;;;;478664;248;27872;-68
2022/09/27 02:43:01;;;;;;;3.80;2.70;;;8.90;99.90;;;;;;478665;248;28695;-69
2022/09/27 02:45:02;;;;;;;2.87;2.63;;;8.90;99.90;;;;;;478634;248;27966;-69
2022/09/27 02:47:03;;;;;;;3.50;2.53;;;9.00;99.90;;;;;;478585;248;28417;-70
2022/09/27 02:49:04;;;;;;;3.00;2.63;;;8.90;99.90;;;;;;478670;248;28353;-68
2022/09/27 02:51:06;;;;;;;3.40;2.70;;;8.90;99.90;;;;;;478632;248;28470;-69
2022/09/27 02:55:23;;;;;;;2.87;2.57;;;8.90;99.90;;;;;;472457;248;27537;-69
2022/09/27 02:57:25;;;;;;;2.40;2.20;;;8.90;99.90;;;;;;472702;251;27817;-69
2022/09/27 02:59:26;;;;;;;2.67;2.13;;;8.90;99.90;;;;;;472805;250;28032;-69
2022/09/27 03:01:27;;;;;;;3.03;2.53;;;8.90;99.90;;;;;;472755;251;27874;-68
2022/09/27 03:03:28;;;;;;;3.17;2.50;;;8.90;99.90;;;;;;472773;251;27417;-69
2022/09/27 03:05:30;;;;;;;3.10;2.50;;;8.80;99.90;;;;;;472778;250;27567;-69
2022/09/27 03:07:31;;;;;;;2.60;2.33;;;8.80;99.90;;;;;;472750;251;27420;-68
2022/09/27 03:09:32;;;;;;;2.70;2.50;;;8.80;99.90;;;;;;472664;250;27928;-68
2022/09/27 03:11:33;;;;;;;2.33;2.13;;;8.80;99.90;;;;;;472801;250;28278;-68
2022/09/27 03:13:37;;;;;;;3.93;2.53;;;8.80;99.90;;;;;;472725;251;27813;-69
2022/09/27 03:15:36;;;;;;;2.17;2.03;;;8.80;99.90;;;;;;472237;251;28269;-70
2022/09/27 03:17:37;;;;;;;4.47;2.30;;;8.80;99.90;;;;;;472713;251;28631;-68
2022/09/27 03:19:38;;;;;;;3.33;2.40;;;8.80;99.90;;;;;;472782;251;28501;-68
2022/09/27 03:21:40;;;;;;;2.47;2.07;;;8.70;99.90;;;;;;472766;251;30217;-68
2022/09/27 03:23:41;;;;;;;2.80;2.57;;;8.80;99.90;;;;;;472652;251;28179;-69
2022/09/27 03:25:42;;;;;;;4.60;2.00;;;8.80;99.90;;;;;;472780;251;27956;-70
2022/09/27 03:27:43;;;;;;;3.33;2.03;;;8.80;99.90;;;;;;472528;251;28069;-69
2022/09/27 03:29:45;;;;;;;3.50;2.40;;;8.80;99.90;;;;;;472794;250;27951;-69
2022/09/27 03:31:46;;;;;;;2.80;2.60;;;8.80;99.90;;;;;;472751;251;27918;-68
2022/09/27 03:33:47;;;;;;;3.17;2.50;;;8.80;99.90;;;;;;475749;242;27777;-69
2022/09/27 03:35:48;;;;;;;3.20;2.43;;;8.70;99.90;;;;;;481841;246;27947;-71
2022/09/27 03:37:50;;;;;;;4.20;2.30;;;8.80;99.90;;;;;;481821;246;27870;-68
2022/09/27 03:39:51;;;;;;;2.63;2.03;;;8.80;99.90;;;;;;481787;246;27926;-69
2022/09/27 03:41:52;;;;;;;2.87;2.30;;;8.80;99.90;;;;;;481858;246;27892;-69
2022/09/27 03:43:56;;;;;;;2.40;2.20;;;8.80;99.90;;;;;;478273;235;27635;-68
2022/09/27 03:45:55;;;;;;;2.27;1.83;;;8.70;99.90;;;;;;475576;250;28010;-70
2022/09/27 03:47:56;;;;;;;2.00;1.90;;;8.70;99.90;;;;;;475683;249;27968;-69
2022/09/27 03:49:57;;;;;;;2.17;1.90;;;8.60;99.90;;;;;;476915;249;27958;-69
2022/09/27 03:51:58;;;;;;;2.23;2.00;;;8.60;99.90;;;;;;477160;249;28113;-68
2022/09/27 03:54:00;;;;;;;2.43;2.23;;;8.70;99.90;;;;;;477177;249;28409;-69
2022/09/27 03:56:01;;;;;;;1.83;1.73;;;8.70;99.90;;;;;;477173;249;28008;-75
2022/09/27 03:58:02;;;;;;;2.10;1.80;;;8.70;99.90;;;;;;477173;249;27805;-68
2022/09/27 04:00:03;;;;;;;1.90;1.80;;;8.60;99.90;;;;;;477198;249;28281;-69
2022/09/27 04:02:05;;;;;;;1.90;1.80;;;8.60;99.90;;;;;;477158;249;28533;-68
2022/09/27 04:04:06;;;;;;;2.27;2.07;;;8.70;99.90;;;;;;479896;236;28425;-68
2022/09/27 04:06:07;;;;;;;1.90;1.70;;;8.60;99.90;;;;;;480864;247;28118;-72
2022/09/27 04:08:10;;;;;;;2.03;1.77;;;8.60;99.90;;;;;;480544;247;28512;-68
2022/09/27 04:10:10;;;;;;;2.73;2.17;;;8.60;99.90;;;;;;480713;247;28221;-69
2022/09/27 04:12:11;;;;;;;1.63;1.50;;;8.50;99.90;;;;;;480814;247;27851;-71
2022/09/27 04:14:12;;;;;;;1.80;1.70;;;8.50;99.90;;;;;;480975;246;27916;-69
2022/09/27 04:16:14;;;;;;;2.17;1.97;;;8.50;99.90;;;;;;480928;247;28080;-71
2022/09/27 04:18:15;;;;;;;1.77;1.60;;;8.50;99.90;;;;;;480924;247;28238;-68
2022/09/27 04:20:17;;;;;;;2.00;1.70;;;8.50;99.90;;;;;;481025;246;28006;-68
2022/09/27 04:22:17;;;;;;;1.87;1.77;;;8.50;99.90;;;;;;480932;247;28209;-71
2022/09/27 04:24:18;;;;;;;1.77;1.67;;;8.50;99.90;;;;;;481018;247;28076;-69
2022/09/27 04:26:20;;;;;;;1.90;1.80;;;8.50;99.90;;;;;;480913;247;28105;-68
2022/09/27 04:28:21;;;;;;;2.50;1.57;;;8.40;99.90;;;;;;480985;247;27723;-69
2022/09/27 04:30:22;;;;;;;1.93;1.73;;;8.50;99.90;;;;;;480980;247;28114;-69
2022/09/27 04:32:23;;;;;;;1.73;1.63;;;8.40;99.90;;;;;;480974;247;27870;-71
2022/09/27 04:36:25;;;;;;;1.80;1.70;;;8.50;99.90;;;;;;480969;247;27980;-68
2022/09/27 04:36:26;;;;;;;2.10;1.90;;;8.40;99.90;;;;;;479002;247;28260;-69
2022/09/27 04:38:27;;;;;;;2.17;1.70;;;8.40;99.90;;;;;;480981;247;28636;-68
2022/09/27 04:40:28;;;;;;;2.40;1.70;;;8.40;99.90;;;;;;480991;247;28532;-69
2022/09/27 04:42:30;;;;;;;1.80;1.67;;;8.40;99.90;;;;;;481019;246;28518;-71
2022/09/27 04:44:31;;;;;;;5.40;1.90;;;8.40;99.90;;;;;;480904;247;28402;-68
2022/09/27 04:46:33;;;;;;;1.90;1.80;;;8.40;99.90;;;;;;480903;247;28605;-70
2022/09/27 04:48:34;;;;;;;2.93;1.90;;;8.40;99.90;;;;;;480832;247;29395;-68
2022/09/27 04:50:35;;;;;;;2.30;2.10;;;8.40;99.90;;;;;;481000;247;27544;-68
2022/09/27 04:52:36;;;;;;;2.10;2.00;;;8.40;99.90;;;;;;481013;247;27649;-71
2022/09/27 04:54:37;;;;;;;3.63;2.73;;;8.40;99.90;;;;;;480968;247;28026;-68
2022/09/27 04:56:39;;;;;;;2.20;2.10;;;8.50;99.90;;;;;;480896;247;28004;-69
2022/09/27 04:58:40;;;;;;;3.83;2.20;;;8.40;99.90;;;;;;480971;247;28126;-68
2022/09/27 05:00:42;;;;;;;2.30;2.20;;;8.40;99.90;;;;;;480977;247;27840;-68
2022/09/27 05:02:42;;;;;;;2.70;1.80;;;8.40;99.90;;;;;;481045;246;28145;-70
2022/09/27 05:04:44;;;;;;;3.23;3.03;;;8.40;99.90;;;;;;480962;247;27966;-68
2022/09/27 05:06:45;;;;;;;2.33;2.00;;;8.40;99.90;;;;;;480915;247;28127;-69
2022/09/27 05:08:46;;;;;;;2.57;2.37;;;8.40;99.90;;;;;;480321;246;27960;-71
2022/09/27 05:10:48;;;;;;;3.27;2.40;;;8.40;99.90;;;;;;480980;247;27805;-68
2022/09/27 05:12:49;;;;;;;2.40;2.20;;;8.30;99.90;;;;;;480692;247;27668;-69
2022/09/27 05:14:50;;;;;;;2.53;2.07;;;8.40;99.90;;;;;;480798;247;27593;-69
2022/09/27 05:16:51;;;;;;;2.73;2.40;;;8.40;99.90;;;;;;480856;247;27865;-69
2022/09/27 05:18:52;;;;;;;2.27;2.07;;;8.40;99.90;;;;;;480982;247;28052;-68
2022/09/27 05:20:55;;;;;;;2.47;2.27;;;8.40;99.90;;;;;;480964;247;27980;-69
2022/09/27 05:22:55;;;;;;;6.77;2.67;;;8.30;99.90;;;;;;480882;247;28010;-70
2022/09/27 05:24:56;;;;;;;2.50;2.17;;;8.30;99.90;;;;;;480972;247;27849;-69
2022/09/27 05:26:58;;;;;;;2.27;2.10;;;8.50;99.90;;;;;;480905;247;28167;-69
2022/09/27 05:28:59;;;;;;;2.30;2.10;;;8.30;99.90;;;;;;480957;247;27616;-69
2022/09/27 05:31:00;;;;;;;5.07;2.20;;;8.30;99.90;;;;;;480928;247;28041;-69
2022/09/27 05:33:01;;;;;;;2.23;1.93;;;8.30;99.90;;;;;;480968;247;28564;-71
2022/09/27 05:35:02;;;;;;;2.20;2.10;;;8.30;99.90;;;;;;480970;247;27951;-68
2022/09/27 05:37:04;;;;;;;2.40;2.20;;;8.20;99.90;;;;;;480911;246;28633;-69
2022/09/27 05:39:06;;;;;;;2.27;2.10;;;8.20;99.90;;;;;;480865;246;28055;-68
2022/09/27 05:41:06;;;;;;;2.40;2.20;;;8.20;99.90;;;;;;480979;247;27980;-69
2022/09/27 05:45:11;;;;;;;3.47;2.20;;;8.30;99.90;;;;;;483414;245;28188;-71
2022/09/27 05:47:13;;;;;;;2.00;1.90;;;8.20;99.90;;;;;;483480;242;28471;-68
2022/09/27 05:49:14;;;;;;;2.40;2.20;;;8.20;99.90;;;;;;483143;245;28217;-69
2022/09/27 05:51:15;;;;;;;2.37;2.13;;;8.20;99.90;;;;;;483313;246;28309;-68
2022/09/27 05:53:17;;;;;;;2.30;2.20;;;8.20;99.90;;;;;;484600;236;28307;-70
2022/09/27 05:55:18;;;;;;;2.33;2.13;;;8.20;99.90;;;;;;483715;245;27894;-70
2022/09/27 05:57:19;;;;;;;2.20;2.10;;;8.20;99.90;;;;;;483506;246;27879;-69
2022/09/27 05:59:20;;;;;;;2.10;1.93;;;8.20;99.90;;;;;;483709;245;27783;-69
2022/09/27 06:01:21;;;;;;;2.07;1.80;;;8.20;99.90;;;;;;483720;245;28742;-68
2022/09/27 06:03:23;;;;;;;2.27;1.90;;;8.20;99.90;;;;;;483719;245;27927;-68
2022/09/27 06:05:24;;;;;;;2.03;1.93;;;8.30;99.90;;;;;;483719;246;27902;-70
2022/09/27 06:07:27;;;;;;;1.87;1.70;;;8.20;99.90;;;;;;483651;245;27752;-68
2022/09/27 06:09:27;;;;;;;2.60;1.90;;;8.30;99.90;;;;;;483708;245;27427;-69
2022/09/27 06:11:28;;;;;;;2.47;2.27;;;8.20;99.90;;;;;;483717;245;27672;-69
2022/09/27 06:13:29;;;;;;;2.30;2.10;;;8.20;99.90;;;;;;481976;236;28093;-69
2022/09/27 06:15:30;;;;;;;2.43;2.23;;;8.20;99.90;;;;;;471675;251;27754;-70
2022/09/27 06:17:31;;;;;;;2.20;2.10;;;8.20;99.90;;;;;;471596;251;27511;-69
2022/09/27 06:19:34;;;;;;;2.10;1.90;;;8.30;99.90;;;;;;471659;251;27882;-69
2022/09/27 06:21:34;;;;;;;3.83;2.00;;;8.30;99.90;;;;;;471594;251;28400;-68
2022/09/27 06:23:35;;;;;;;3.70;2.73;;;8.00;99.90;;;;;;475188;234;28349;-69
2022/09/27 06:25:36;;;;;;;2.40;2.00;;;8.30;99.90;;;;;;483922;246;28240;-72
2022/09/27 06:27:38;;;;;;;2.97;2.00;;;8.40;99.90;;;;;;483834;246;28553;-68
2022/09/27 06:29:39;;;;;;;2.50;2.30;;;8.40;99.90;;;;;;483875;246;28604;-69
2022/09/27 06:31:40;;;;;;;1.93;1.80;;;8.30;99.90;;;;;;483899;246;28356;-69
2022/09/27 06:33:44;;;;;;;2.20;2.10;;;8.40;99.90;;;;;;483901;246;27981;-69
2022/09/27 06:35:44;;;;;;;2.87;2.33;;;8.60;99.90;;;;;;483489;246;28287;-70
2022/09/27 06:37:44;;;;;;;1.93;1.83;;;8.40;99.90;;;;;;483817;246;28294;-69
2022/09/27 06:39:47;;;;;;;2.10;1.90;;;8.40;99.90;;;;;;483885;246;28384;-69
2022/09/27 06:41:47;;;;;;;1.90;1.80;;;8.50;99.90;;;;;;483783;246;28026;-69
2022/09/27 06:43:48;;;;;;;1.87;1.77;;;8.40;99.90;;;;;;481292;240;27920;-68
2022/09/27 06:45:49;;;;;;;1.73;1.63;;;8.50;99.90;;;;;;475294;250;27765;-72
2022/09/27 06:47:50;;;;;;;2.73;2.47;;;8.50;99.90;;;;;;475157;250;27820;-68
2022/09/27 06:49:51;;;;;;;2.10;2.00;;;8.50;99.90;;;;;;475281;250;27941;-70
2022/09/27 06:51:54;;;;;;;2.17;1.97;;;8.90;99.90;;;;;;475299;250;27615;-68
2022/09/27 06:53:54;;;;;;;2.10;2.00;;;8.50;99.90;;;;;;474731;241;27875;-70
2022/09/27 06:55:55;;;;;;;2.33;2.00;;;8.50;99.90;;;;;;475311;250;27962;-72
2022/09/27 07:00:28;;;;;;;2.43;2.00;;;8.50;99.90;;;;;;475466;243;28434;-69
2022/09/27 07:02:30;;;;;;;2.00;1.90;;;8.50;99.90;;;;;;475309;248;27954;-69
2022/09/27 07:04:31;;;;;;;3.27;2.00;;;8.60;99.90;;;;;;488939;235;28024;-69
2022/09/27 07:06:33;;;;;;;2.20;2.00;;;8.60;99.90;;;;;;493811;240;27928;-68
2022/09/27 07:08:34;;;;;;;3.10;2.20;;;8.50;99.90;;;;;;493903;240;27972;-72
2022/09/27 07:10:36;;;;;;;2.37;2.17;;;8.50;99.90;;;;;;493982;240;27963;-68
2022/09/27 07:12:36;;;;;;;2.23;2.13;;;8.50;99.90;;;;;;493925;240;27494;-70
2022/09/27 07:14:37;;;;;;;2.30;1.87;;;8.60;99.90;;;;;;494013;240;27819;-69
2022/09/27 07:16:38;;;;;;;2.23;2.10;;;8.60;99.90;;;;;;493944;241;28043;-69
2022/09/27 07:18:40;;;;;;;1.97;1.87;;;8.60;99.90;;;;;;493972;240;28208;-72
2022/09/27 07:20:41;;;;;;;2.30;2.10;;;8.80;99.90;;;;;;493951;240;28118;-68
2022/09/27 07:22:44;;;;;;;3.77;2.40;;;8.80;99.90;;;;;;493926;240;27971;-69
2022/09/27 07:24:43;;;;;;;2.97;2.50;;;8.80;99.90;;;;;;493862;241;28040;-69
2022/09/27 07:26:46;;;;;;;3.60;2.50;;;8.90;99.90;;;;;;493884;240;28441;-69
2022/09/27 07:28:46;;;;;;;3.10;2.70;;;8.90;99.90;;;;;;493877;241;28436;-71
2022/09/27 07:30:47;;;;;;;2.23;2.10;;;8.90;99.90;;;;;;493927;240;28390;-69
2022/09/27 07:32:49;;;;;;;2.47;2.30;;;9.00;99.90;;;;;;493943;240;28572;-69
2022/09/27 07:34:50;;;;;;;3.70;2.33;;;9.10;99.90;;;;;;493928;240;28444;-69
2022/09/27 07:36:52;;;;;;;2.73;2.53;;;9.10;99.90;;;;;;493866;240;28051;-69
2022/09/27 07:38:52;;;;;;;3.27;2.33;;;9.20;99.90;;;;;;493849;240;27990;-72
2022/09/27 07:40:53;;;;;;;2.37;2.27;;;9.20;99.90;;;;;;493933;241;27961;-69
2022/09/27 07:42:55;;;;;;;2.63;2.33;;;9.20;99.90;;;;;;493924;240;28091;-68
2022/09/27 07:44:56;;;;;;;2.83;2.63;;;9.30;99.90;;;;;;493926;241;27812;-68
2022/09/27 07:46:57;;;;;;;3.20;2.43;;;9.10;99.90;;;;;;493866;240;27953;-70
2022/09/27 07:48:58;;;;;;;2.93;2.63;;;9.10;99.90;;;;;;493937;240;28026;-70
2022/09/27 07:51:00;;;;;;;3.50;2.60;;;9.10;99.90;;;;;;493915;241;27985;-68
2022/09/27 07:55:12;;;;;;;2.97;2.77;;;8.90;99.90;;;;;;479172;243;27874;-69
2022/09/27 07:57:12;;;;;;;3.13;2.80;;;8.90;99.90;;;;;;479493;247;28088;-68
2022/09/27 07:59:14;;;;;;;4.10;2.73;;;8.90;99.90;;;;;;479584;247;28097;-68
2022/09/27 08:01:15;;;;;;;3.30;2.93;;;8.80;99.90;;;;;;479576;248;28460;-70
2022/09/27 08:03:16;;;;;;;5.27;2.90;;;8.80;99.90;;;;;;478280;243;28442;-70
2022/09/27 08:05:17;;;;;;;5.53;3.10;;;8.80;99.90;;;;;;473512;249;28582;-71
2022/09/27 08:07:19;;;;;;;3.37;3.07;;;8.80;99.90;;;;;;463000;257;29159;-70
2022/09/27 08:09:20;;;;;;;4.23;2.90;;;8.90;99.90;;;;;;471606;251;28443;-69
2022/09/27 08:11:21;;;;;;;3.10;2.90;;;8.90;99.90;;;;;;471978;251;28037;-69
2022/09/27 08:13:22;;;;;;;5.77;3.60;;;8.90;99.90;;;;;;473498;251;27753;-69
2022/09/27 08:15:24;;;;;;;3.97;3.20;;;9.20;99.90;;;;;;455868;261;28159;-69
2022/09/27 08:17:25;;;;;;;3.33;3.07;;;9.40;99.90;;;;;;455808;261;28178;-69
2022/09/27 08:19:26;;;;;;;4.23;3.37;;;9.40;99.90;;;;;;455892;261;28106;-70
2022/09/27 08:21:29;;;;;;;3.27;2.97;;;9.50;99.90;;;;;;455834;261;28151;-70
2022/09/27 08:23:29;;;;;;;3.30;3.00;;;9.60;99.90;;;;;;456848;238;28011;-70
2022/09/27 08:25:30;;;;;;;2.83;2.63;;;8.90;99.90;;;;;;454592;260;27753;-70
2022/09/27 08:27:31;;;;;;;4.97;2.90;;;9.50;99.90;;;;;;454737;260;28232;-71
2022/09/27 08:29:32;;;;;;;2.90;2.70;;;9.40;99.90;;;;;;454881;260;27848;-69
2022/09/27 08:31:34;;;;;;;3.13;2.80;;;9.20;99.90;;;;;;454750;261;27892;-70
2022/09/27 08:33:35;;;;;;;3.53;3.00;;;9.40;99.90;;;;;;462350;234;27985;-68
2022/09/27 08:35:36;;;;;;;6.03;3.70;;;9.50;99.90;;;;;;473644;251;28036;-69
2022/09/27 08:37:37;;;;;;;3.70;2.80;;;9.40;99.90;;;;;;473570;251;27999;-72
2022/09/27 08:39:41;;;;;;;4.07;3.20;;;9.40;99.90;;;;;;473818;249;28077;-68
2022/09/27 08:41:43;;;;;;;3.63;3.10;;;9.40;99.90;;;;;;473631;251;28147;-68
2022/09/27 08:43:44;;;;;;;2.80;2.40;;;9.30;99.90;;;;;;472840;245;27833;-71
2022/09/27 08:45:45;;;;;;;2.70;2.50;;;9.20;99.90;;;;;;488678;242;27913;-69
2022/09/27 08:47:46;;;;;;;6.03;2.50;;;9.10;99.90;;;;;;491002;241;27614;-69
2022/09/27 08:49:47;;;;;;;2.97;2.43;;;9.10;99.90;;;;;;491241;242;28058;-69
2022/09/27 08:51:49;;;;;;;2.90;2.60;;;9.20;99.90;;;;;;491217;242;27934;-70
2022/09/27 08:53:50;;;;;;;2.53;2.13;;;9.20;99.90;;;;;;491247;242;28059;-72
2022/09/27 08:55:51;;;;;;;3.07;2.60;;;9.20;99.90;;;;;;491210;242;28393;-69
2022/09/27 08:57:52;;;;;;;2.50;2.17;;;9.30;99.90;;;;;;491169;242;28642;-70
2022/09/27 08:59:54;;;;;;;3.23;1.83;;;9.30;99.90;;;;;;491233;241;28407;-68
2022/09/27 09:01:55;;;;;;;2.20;1.93;;;9.30;99.90;;;;;;491219;242;28383;-70
2022/09/27 09:03:56;;;;;;;2.30;2.10;;;9.30;99.90;;;;;;491210;241;28433;-72
2022/09/27 09:05:57;;;;;;;1.90;1.80;;;9.10;99.90;;;;;;491199;242;28006;-69
2022/09/27 09:07:59;;;;;;;1.70;1.60;;;9.20;99.90;;;;;;491132;242;27972;-71
2022/09/27 09:10:00;;;;;;;1.50;1.50;;;9.00;99.90;;;;;;491155;242;27964;-69
2022/09/27 09:14:20;;;;;;;1.67;1.57;;;9.20;99.90;;;;;;472700;242;28063;-69
2022/09/27 09:16:22;;;;;;;1.73;1.63;;;9.10;99.90;;;;;;471805;251;27767;-68
2022/09/27 09:18:23;;;;;;;2.33;1.67;;;9.00;99.90;;;;;;471872;251;27932;-70
2022/09/27 09:20:24;;;;;;;1.80;1.70;;;8.80;99.90;;;;;;471863;251;28297;-66
2022/09/27 09:22:27;;;;;;;1.73;1.63;;;8.70;99.90;;;;;;471907;251;28019;-69
2022/09/27 09:24:27;;;;;;;1.70;1.60;;;8.70;99.90;;;;;;472081;251;28113;-71
2022/09/27 09:26:28;;;;;;;2.17;2.00;;;8.70;99.90;;;;;;472212;251;27864;-70
2022/09/27 09:28:29;;;;;;;1.50;1.40;;;8.80;99.90;;;;;;472277;249;28232;-69
2022/09/27 09:30:30;;;;;;;2.40;1.70;;;8.90;99.90;;;;;;472284;250;29021;-69
2022/09/27 09:32:32;;;;;;;2.63;1.90;;;9.00;99.90;;;;;;472278;250;28469;-70
2022/09/27 09:34:33;;;;;;;1.63;1.53;;;9.10;99.90;;;;;;475752;242;28542;-72
2022/09/27 09:36:34;;;;;;;1.70;1.60;;;9.40;99.90;;;;;;493637;241;28481;-70
2022/09/27 09:38:35;;;;;;;1.70;1.60;;;9.60;99.90;;;;;;484049;245;27998;-69
2022/09/27 09:40:37;;;;;;;1.70;1.60;;;9.30;99.90;;;;;;477390;249;28199;-72
2022/09/27 09:42:38;;;;;;;2.30;2.10;;;9.90;99.90;;;;;;493671;241;28019;-70
2022/09/27 09:44:40;;;;;;;2.07;1.67;;;10.00;99.90;;;;;;484053;245;28020;-71
2022/09/27 09:46:40;;;;;;;2.00;1.83;;;10.00;99.90;;;;;;477379;249;27976;-70
2022/09/27 09:48:42;;;;;;;1.80;1.70;;;9.90;99.90;;;;;;493665;241;27949;-69
2022/09/27 09:50:43;;;;;;;2.90;2.00;;;10.00;99.90;;;;;;484041;246;28126;-70
2022/09/27 09:52:44;;;;;;;1.63;1.53;;;10.10;99.90;;;;;;477422;249;27841;-69
2022/09/27 09:54:46;;;;;;;2.17;1.83;;;10.10;99.90;;;;;;494619;234;27826;-70
2022/09/27 09:56:47;;;;;;;3.07;1.80;;;10.40;99.90;;;;;;498554;238;27661;-70
2022/09/27 09:58:49;;;;;;;3.00;1.90;;;10.30;99.90;;;;;;498232;238;27945;-70
2022/09/27 10:00:49;;;;;;;2.23;2.13;;;10.40;99.90;;;;;;498210;239;27938;-73
2022/09/27 10:02:51;;;;;;;2.33;2.03;;;10.40;99.90;;;;;;498211;239;28464;-70
2022/09/27 10:04:52;;;;;;;7.70;2.53;;;10.30;99.90;;;;;;498229;238;27868;-70
2022/09/27 10:06:53;;;;;;;2.20;1.70;;;10.70;99.90;;;;;;498175;239;27949;-70
2022/09/27 10:08:54;;;;;;;2.47;1.70;;;10.70;99.90;;;;;;498188;239;28127;-70
2022/09/27 10:10:56;;;;;;;2.40;2.13;;;10.40;99.90;;;;;;498223;239;27855;-73
2022/09/27 10:12:57;;;;;;;2.70;1.80;;;10.90;99.90;;;;;;498223;239;28121;-70
2022/09/27 10:14:58;;;;;;;1.83;1.73;;;10.80;99.90;;;;;;498219;239;28094;-70
2022/09/27 10:16:59;;;;;;;2.57;2.00;;;11.00;99.90;;;;;;498172;239;28490;-70
2022/09/27 10:19:01;;;;;;;3.37;2.30;;;10.80;99.90;;;;;;498214;239;28766;-70
2022/09/27 10:21:02;;;;;;;2.17;1.90;;;10.70;99.90;;;;;;498201;239;28461;-72
2022/09/27 10:23:03;;;;;;;1.90;1.80;;;10.70;99.90;;;;;;498257;239;28391;-70
2022/09/27 10:25:06;;;;;;;2.03;1.93;;;10.50;99.90;;;;;;498215;237;27729;-70
2022/09/27 10:27:06;;;;;;;5.80;1.90;;;10.50;99.90;;;;;;498035;239;27806;-69
2022/09/27 10:29:07;;;;;;;4.30;1.90;;;10.40;99.90;;;;;;498217;239;27842;-69
2022/09/27 10:31:09;;;;;;;6.07;2.23;;;10.40;99.90;;;;;;498199;239;28033;-72
2022/09/27 10:35:20;;;;;;;2.83;1.87;;;10.70;99.90;;;;;;480702;244;28106;-69
2022/09/27 10:37:21;;;;;;;3.17;2.07;;;10.90;99.90;;;;;;479259;247;28120;-69
2022/09/27 10:39:23;;;;;;;4.23;1.97;;;11.20;99.90;;;;;;479238;247;28915;-72
2022/09/27 10:41:24;;;;;;;2.00;1.90;;;11.30;99.90;;;;;;480124;245;28535;-69
2022/09/27 10:43:25;;;;;;;1.63;1.50;;;11.30;99.90;;;;;;476697;244;28722;-69
2022/09/27 10:45:26;;;;;;;3.47;2.23;;;11.20;99.90;;;;;;465554;254;28742;-69
2022/09/27 10:47:28;;;;;;;1.87;1.77;;;11.20;99.90;;;;;;466952;254;28306;-69
2022/09/27 10:49:29;;;;;;;1.63;1.53;;;11.00;99.90;;;;;;465880;254;28249;-72
2022/09/27 10:51:30;;;;;;;2.30;1.50;;;10.60;99.90;;;;;;466097;253;27945;-70